sensor_id;sensor_type;location;lat;lon;timestamp;pressure;altitude;pressure_sealevel;temperature;humidity
57990;BME280;58373;51.824;5.564;2022-10-31T00:00:20;101995.50;;;13.03;93.05
57990;BME280;58373;51.824;5.564;2022-10-31T00:02:45;102002.09;;;12.96;93.15
57990;BME280;58373;51.824;5.564;2022-10-31T00:05:11;101997.75;;;12.96;93.07
57990;BME280;58373;51.824;5.564;2022-10-31T00:07:36;101992.41;;;12.98;93.28
57990;BME280;58373;51.824;5.564;2022-10-31T00:10:02;102000.94;;;13.00;93.54
57990;BME280;58373;51.824;5.564;2022-10-31T00:12:27;101988.16;;;12.97;93.37
57990;BME280;58373;51.824;5.564;2022-10-31T00:14:53;101987.16;;;12.87;93.96
57990;BME280;58373;51.824;5.564;2022-10-31T00:17:18;101997.81;;;12.95;93.61
57990;BME280;58373;51.824;5.564;2022-10-31T00:19:43;101995.47;;;12.92;93.72
57990;BME280;58373;51.824;5.564;2022-10-31T00:22:09;101989.63;;;12.88;93.81
57990;BME280;58373;51.824;5.564;2022-10-31T00:24:34;101994.72;;;12.90;93.79
57990;BME280;58373;51.824;5.564;2022-10-31T00:26:59;101998.28;;;12.89;93.97
57990;BME280;58373;51.824;5.564;2022-10-31T00:29:25;101995.78;;;12.87;94.20
57990;BME280;58373;51.824;5.564;2022-10-31T00:31:51;102002.66;;;12.88;94.16
57990;BME280;58373;51.824;5.564;2022-10-31T00:34:17;102000.38;;;12.84;94.36
57990;BME280;58373;51.824;5.564;2022-10-31T00:36:42;102003.72;;;12.86;94.55
57990;BME280;58373;51.824;5.564;2022-10-31T00:39:07;101995.41;;;12.81;95.05
57990;BME280;58373;51.824;5.564;2022-10-31T00:41:33;102005.13;;;12.90;94.32
57990;BME280;58373;51.824;5.564;2022-10-31T00:43:58;101996.84;;;12.85;94.60
57990;BME280;58373;51.824;5.564;2022-10-31T00:46:23;101994.59;;;12.80;94.26
57990;BME280;58373;51.824;5.564;2022-10-31T00:48:49;102003.94;;;12.83;94.57
57990;BME280;58373;51.824;5.564;2022-10-31T00:51:14;102019.78;;;12.80;94.23
57990;BME280;58373;51.824;5.564;2022-10-31T00:53:40;101999.41;;;12.73;94.59
57990;BME280;58373;51.824;5.564;2022-10-31T00:56:05;102002.91;;;12.72;94.68
57990;BME280;58373;51.824;5.564;2022-10-31T00:58:31;101997.31;;;12.66;94.96
57990;BME280;58373;51.824;5.564;2022-10-31T01:00:56;102009.41;;;12.67;95.52
57990;BME280;58373;51.824;5.564;2022-10-31T01:03:30;101997.56;;;12.63;95.45
57990;BME280;58373;51.824;5.564;2022-10-31T01:06:11;101995.47;;;12.68;95.28
57990;BME280;58373;51.824;5.564;2022-10-31T01:08:38;101997.25;;;12.67;95.32
57990;BME280;58373;51.824;5.564;2022-10-31T01:13:34;101997.94;;;12.69;95.80
57990;BME280;58373;51.824;5.564;2022-10-31T01:16:01;101994.19;;;12.73;95.94
57990;BME280;58373;51.824;5.564;2022-10-31T01:18:27;101998.53;;;12.73;95.62
57990;BME280;58373;51.824;5.564;2022-10-31T01:21:08;102003.53;;;12.76;95.72
57990;BME280;58373;51.824;5.564;2022-10-31T01:23:34;102002.34;;;12.69;95.80
57990;BME280;58373;51.824;5.564;2022-10-31T01:26:21;101995.94;;;12.73;95.14
57990;BME280;58373;51.824;5.564;2022-10-31T01:28:48;101980.88;;;12.65;95.08
57990;BME280;58373;51.824;5.564;2022-10-31T01:31:14;101972.81;;;12.57;95.59
57990;BME280;58373;51.824;5.564;2022-10-31T01:33:40;101973.75;;;12.56;95.07
57990;BME280;58373;51.824;5.564;2022-10-31T01:36:15;101968.97;;;12.50;95.54
57990;BME280;58373;51.824;5.564;2022-10-31T01:38:40;101980.31;;;12.49;94.46
57990;BME280;58373;51.824;5.564;2022-10-31T01:41:06;101972.44;;;12.38;93.86
57990;BME280;58373;51.824;5.564;2022-10-31T01:43:57;101981.84;;;12.28;94.57
57990;BME280;58373;51.824;5.564;2022-10-31T01:46:35;101987.97;;;12.27;94.50
57990;BME280;58373;51.824;5.564;2022-10-31T01:49:04;101983.13;;;12.22;94.72
57990;BME280;58373;51.824;5.564;2022-10-31T01:51:37;101981.44;;;12.21;95.06
57990;BME280;58373;51.824;5.564;2022-10-31T01:54:12;101975.81;;;12.14;94.93
57990;BME280;58373;51.824;5.564;2022-10-31T01:56:43;101983.19;;;12.20;95.27
57990;BME280;58373;51.824;5.564;2022-10-31T01:59:12;101978.94;;;12.19;95.14
57990;BME280;58373;51.824;5.564;2022-10-31T02:01:40;101978.22;;;12.17;95.27
57990;BME280;58373;51.824;5.564;2022-10-31T02:04:06;101982.50;;;12.18;94.94
57990;BME280;58373;51.824;5.564;2022-10-31T02:06:33;101991.75;;;12.22;94.94
57990;BME280;58373;51.824;5.564;2022-10-31T02:09:03;101994.34;;;12.22;95.13
57990;BME280;58373;51.824;5.564;2022-10-31T02:11:29;101991.22;;;12.17;94.86
57990;BME280;58373;51.824;5.564;2022-10-31T02:13:54;101984.56;;;12.13;95.06
57990;BME280;58373;51.824;5.564;2022-10-31T02:16:20;101979.59;;;12.10;94.95
57990;BME280;58373;51.824;5.564;2022-10-31T02:18:45;101987.28;;;12.12;95.05
57990;BME280;58373;51.824;5.564;2022-10-31T02:21:31;101973.97;;;12.04;95.65
57990;BME280;58373;51.824;5.564;2022-10-31T02:26:57;101968.38;;;11.97;95.22
57990;BME280;58373;51.824;5.564;2022-10-31T02:30:02;101968.16;;;12.00;95.38
57990;BME280;58373;51.824;5.564;2022-10-31T02:32:41;101965.06;;;11.95;95.33
57990;BME280;58373;51.824;5.564;2022-10-31T02:35:24;101962.75;;;11.90;95.61
57990;BME280;58373;51.824;5.564;2022-10-31T02:37:59;101969.84;;;11.88;95.45
57990;BME280;58373;51.824;5.564;2022-10-31T02:43:02;101967.72;;;11.81;94.63
57990;BME280;58373;51.824;5.564;2022-10-31T02:45:35;101972.31;;;11.77;95.25
57990;BME280;58373;51.824;5.564;2022-10-31T02:48:27;101975.03;;;11.76;95.52
57990;BME280;58373;51.824;5.564;2022-10-31T02:50:57;101977.94;;;11.71;96.00
57990;BME280;58373;51.824;5.564;2022-10-31T02:53:23;101980.63;;;11.69;95.54
57990;BME280;58373;51.824;5.564;2022-10-31T02:55:59;101966.91;;;11.67;96.18
57990;BME280;58373;51.824;5.564;2022-10-31T02:58:28;101973.16;;;11.65;95.77
57990;BME280;58373;51.824;5.564;2022-10-31T03:01:42;101982.31;;;11.70;96.31
57990;BME280;58373;51.824;5.564;2022-10-31T03:09:24;101971.38;;;11.65;96.49
57990;BME280;58373;51.824;5.564;2022-10-31T03:14:49;101983.63;;;11.63;96.99
57990;BME280;58373;51.824;5.564;2022-10-31T03:17:32;101975.84;;;11.63;96.64
57990;BME280;58373;51.824;5.564;2022-10-31T03:20:00;101987.16;;;11.62;96.97
57990;BME280;58373;51.824;5.564;2022-10-31T03:22:29;101981.25;;;11.60;96.53
57990;BME280;58373;51.824;5.564;2022-10-31T03:24:58;101984.78;;;11.59;95.90
57990;BME280;58373;51.824;5.564;2022-10-31T03:27:25;101983.63;;;11.63;95.47
57990;BME280;58373;51.824;5.564;2022-10-31T03:29:54;101984.28;;;11.54;96.18
57990;BME280;58373;51.824;5.564;2022-10-31T03:32:34;101989.47;;;11.54;96.35
57990;BME280;58373;51.824;5.564;2022-10-31T03:35:02;101985.63;;;11.47;96.21
57990;BME280;58373;51.824;5.564;2022-10-31T03:37:30;101984.38;;;11.53;95.71
57990;BME280;58373;51.824;5.564;2022-10-31T03:39:58;101978.97;;;11.43;96.33
57990;BME280;58373;51.824;5.564;2022-10-31T03:42:27;101979.78;;;11.43;96.93
57990;BME280;58373;51.824;5.564;2022-10-31T03:45:08;101985.91;;;11.42;97.02
57990;BME280;58373;51.824;5.564;2022-10-31T03:47:37;101986.00;;;11.41;96.46
57990;BME280;58373;51.824;5.564;2022-10-31T03:50:05;101983.09;;;11.33;97.03
57990;BME280;58373;51.824;5.564;2022-10-31T03:57:49;101985.16;;;11.28;96.87
57990;BME280;58373;51.824;5.564;2022-10-31T04:00:16;101983.50;;;11.27;96.93
57990;BME280;58373;51.824;5.564;2022-10-31T04:02:48;101973.53;;;11.21;97.00
57990;BME280;58373;51.824;5.564;2022-10-31T04:05:15;101977.06;;;11.20;96.92
57990;BME280;58373;51.824;5.564;2022-10-31T04:07:45;101978.72;;;11.21;97.23
57990;BME280;58373;51.824;5.564;2022-10-31T04:10:14;101987.44;;;11.20;97.61
57990;BME280;58373;51.824;5.564;2022-10-31T04:12:43;101980.59;;;11.19;97.45
57990;BME280;58373;51.824;5.564;2022-10-31T04:15:11;101973.94;;;11.14;97.14
57990;BME280;58373;51.824;5.564;2022-10-31T04:17:40;101975.59;;;11.15;97.18
57990;BME280;58373;51.824;5.564;2022-10-31T04:20:08;101982.66;;;11.13;97.62
57990;BME280;58373;51.824;5.564;2022-10-31T04:22:33;101977.66;;;11.10;98.33
57990;BME280;58373;51.824;5.564;2022-10-31T04:24:59;101976.00;;;11.09;97.37
57990;BME280;58373;51.824;5.564;2022-10-31T04:27:24;101977.66;;;11.10;98.66
57990;BME280;58373;51.824;5.564;2022-10-31T04:29:49;101969.84;;;11.10;97.88
57990;BME280;58373;51.824;5.564;2022-10-31T04:32:15;101963.94;;;11.08;98.11
57990;BME280;58373;51.824;5.564;2022-10-31T04:34:40;101968.09;;;11.11;98.38
57990;BME280;58373;51.824;5.564;2022-10-31T04:37:05;101967.66;;;11.04;98.08
57990;BME280;58373;51.824;5.564;2022-10-31T04:39:31;101970.25;;;11.04;98.22
57990;BME280;58373;51.824;5.564;2022-10-31T04:41:56;101978.06;;;11.04;98.32
57990;BME280;58373;51.824;5.564;2022-10-31T04:44:21;101971.19;;;11.03;98.72
57990;BME280;58373;51.824;5.564;2022-10-31T04:46:47;101969.72;;;10.99;97.81
57990;BME280;58373;51.824;5.564;2022-10-31T04:49:12;101961.41;;;10.94;97.85
57990;BME280;58373;51.824;5.564;2022-10-31T04:51:38;101972.44;;;10.98;97.49
57990;BME280;58373;51.824;5.564;2022-10-31T04:54:03;101975.31;;;10.93;97.57
57990;BME280;58373;51.824;5.564;2022-10-31T04:56:29;101970.34;;;10.90;98.62
57990;BME280;58373;51.824;5.564;2022-10-31T04:58:54;101979.03;;;10.89;98.16
57990;BME280;58373;51.824;5.564;2022-10-31T05:01:20;101977.38;;;10.88;97.68
57990;BME280;58373;51.824;5.564;2022-10-31T05:03:45;101974.78;;;10.88;97.68
57990;BME280;58373;51.824;5.564;2022-10-31T05:06:11;101967.19;;;10.85;98.11
57990;BME280;58373;51.824;5.564;2022-10-31T05:08:36;101967.38;;;10.82;97.59
57990;BME280;58373;51.824;5.564;2022-10-31T05:11:03;101955.53;;;10.78;98.36
57990;BME280;58373;51.824;5.564;2022-10-31T05:13:28;101954.91;;;10.74;98.10
57990;BME280;58373;51.824;5.564;2022-10-31T05:15:54;101950.72;;;10.72;98.42
57990;BME280;58373;51.824;5.564;2022-10-31T05:18:19;101953.66;;;10.67;98.21
57990;BME280;58373;51.824;5.564;2022-10-31T05:20:45;101946.97;;;10.63;98.52
57990;BME280;58373;51.824;5.564;2022-10-31T05:23:10;101949.47;;;10.64;98.41
57990;BME280;58373;51.824;5.564;2022-10-31T05:25:36;101955.50;;;10.65;97.86
57990;BME280;58373;51.824;5.564;2022-10-31T05:28:04;101953.00;;;10.63;98.07
57990;BME280;58373;51.824;5.564;2022-10-31T05:30:30;101950.25;;;10.52;98.04
57990;BME280;58373;51.824;5.564;2022-10-31T05:32:56;101954.50;;;10.53;98.49
57990;BME280;58373;51.824;5.564;2022-10-31T05:35:25;101945.47;;;10.46;98.18
57990;BME280;58373;51.824;5.564;2022-10-31T05:37:50;101948.44;;;10.40;97.50
57990;BME280;58373;51.824;5.564;2022-10-31T05:40:17;101957.34;;;10.36;97.49
57990;BME280;58373;51.824;5.564;2022-10-31T05:42:43;101959.59;;;10.28;97.68
57990;BME280;58373;51.824;5.564;2022-10-31T05:45:11;101952.09;;;10.23;98.10
57990;BME280;58373;51.824;5.564;2022-10-31T05:47:36;101951.41;;;10.20;97.59
57990;BME280;58373;51.824;5.564;2022-10-31T05:50:02;101959.09;;;10.21;98.22
57990;BME280;58373;51.824;5.564;2022-10-31T05:52:28;101958.28;;;10.21;98.82
57990;BME280;58373;51.824;5.564;2022-10-31T05:54:53;101960.88;;;10.21;98.44
57990;BME280;58373;51.824;5.564;2022-10-31T05:57:19;101955.50;;;10.24;99.26
57990;BME280;58373;51.824;5.564;2022-10-31T05:59:44;101943.81;;;10.17;99.00
57990;BME280;58373;51.824;5.564;2022-10-31T06:02:09;101957.00;;;10.28;99.98
57990;BME280;58373;51.824;5.564;2022-10-31T06:04:35;101952.53;;;10.30;99.17
57990;BME280;58373;51.824;5.564;2022-10-31T06:07:00;101953.47;;;10.29;99.37
57990;BME280;58373;51.824;5.564;2022-10-31T06:09:25;101945.78;;;10.27;99.49
57990;BME280;58373;51.824;5.564;2022-10-31T06:11:50;101948.28;;;10.29;99.40
57990;BME280;58373;51.824;5.564;2022-10-31T06:14:16;101944.97;;;10.27;99.80
57990;BME280;58373;51.824;5.564;2022-10-31T06:16:41;101945.88;;;10.26;99.75
57990;BME280;58373;51.824;5.564;2022-10-31T06:19:06;101936.78;;;10.19;98.83
57990;BME280;58373;51.824;5.564;2022-10-31T06:21:34;101936.97;;;10.16;98.62
57990;BME280;58373;51.824;5.564;2022-10-31T06:23:59;101947.34;;;10.16;98.42
57990;BME280;58373;51.824;5.564;2022-10-31T06:26:25;101952.53;;;10.16;99.39
57990;BME280;58373;51.824;5.564;2022-10-31T06:28:50;101945.66;;;10.15;99.36
57990;BME280;58373;51.824;5.564;2022-10-31T06:31:15;101950.84;;;10.15;99.96
57990;BME280;58373;51.824;5.564;2022-10-31T06:33:41;101953.53;;;10.13;98.31
57990;BME280;58373;51.824;5.564;2022-10-31T06:36:08;101947.72;;;10.09;98.65
57990;BME280;58373;51.824;5.564;2022-10-31T06:38:33;101951.22;;;10.08;98.52
57990;BME280;58373;51.824;5.564;2022-10-31T06:41:02;101948.28;;;10.00;99.02
57990;BME280;58373;51.824;5.564;2022-10-31T06:43:28;101953.25;;;10.03;99.35
57990;BME280;58373;51.824;5.564;2022-10-31T06:45:53;101941.44;;;9.99;99.19
57990;BME280;58373;51.824;5.564;2022-10-31T06:48:19;101955.72;;;9.92;99.10
57990;BME280;58373;51.824;5.564;2022-10-31T06:50:44;101943.84;;;9.88;98.84
57990;BME280;58373;51.824;5.564;2022-10-31T06:53:10;101955.88;;;9.89;98.79
57990;BME280;58373;51.824;5.564;2022-10-31T06:55:35;101950.69;;;9.89;98.72
57990;BME280;58373;51.824;5.564;2022-10-31T06:58:01;101961.06;;;9.89;98.55
57990;BME280;58373;51.824;5.564;2022-10-31T07:00:28;101951.91;;;9.83;99.65
57990;BME280;58373;51.824;5.564;2022-10-31T07:03:06;101961.88;;;9.90;99.49
57990;BME280;58373;51.824;5.564;2022-10-31T07:05:32;101942.91;;;9.89;99.88
57990;BME280;58373;51.824;5.564;2022-10-31T07:07:59;101948.84;;;9.91;100.00
57990;BME280;58373;51.824;5.564;2022-10-31T07:10:27;101946.78;;;9.96;100.00
57990;BME280;58373;51.824;5.564;2022-10-31T07:12:59;101943.81;;;10.02;100.00
57990;BME280;58373;51.824;5.564;2022-10-31T07:15:26;101952.91;;;10.09;100.00
57990;BME280;58373;51.824;5.564;2022-10-31T07:17:52;101944.94;;;10.13;100.00
57990;BME280;58373;51.824;5.564;2022-10-31T07:20:17;101942.34;;;10.13;100.00
57990;BME280;58373;51.824;5.564;2022-10-31T07:22:43;101941.97;;;10.19;100.00
57990;BME280;58373;51.824;5.564;2022-10-31T07:25:09;101952.81;;;10.25;100.00
57990;BME280;58373;51.824;5.564;2022-10-31T07:27:36;101943.09;;;10.29;100.00
57990;BME280;58373;51.824;5.564;2022-10-31T07:30:02;101946.63;;;10.28;100.00
57990;BME280;58373;51.824;5.564;2022-10-31T07:32:28;101954.00;;;10.34;100.00
57990;BME280;58373;51.824;5.564;2022-10-31T07:35:01;101951.22;;;10.37;100.00
57990;BME280;58373;51.824;5.564;2022-10-31T07:37:27;101951.03;;;10.40;100.00
57990;BME280;58373;51.824;5.564;2022-10-31T07:39:52;101955.19;;;10.43;100.00
57990;BME280;58373;51.824;5.564;2022-10-31T07:42:18;101947.31;;;10.44;100.00
57990;BME280;58373;51.824;5.564;2022-10-31T07:44:43;101950.44;;;10.49;100.00
57990;BME280;58373;51.824;5.564;2022-10-31T07:47:08;101946.72;;;10.53;100.00
57990;BME280;58373;51.824;5.564;2022-10-31T07:49:34;101960.25;;;10.58;100.00
57990;BME280;58373;51.824;5.564;2022-10-31T07:51:59;101950.50;;;10.62;100.00
57990;BME280;58373;51.824;5.564;2022-10-31T07:54:25;101946.88;;;10.64;100.00
57990;BME280;58373;51.824;5.564;2022-10-31T07:56:50;101957.81;;;10.70;100.00
57990;BME280;58373;51.824;5.564;2022-10-31T07:59:15;101949.19;;;10.69;100.00
57990;BME280;58373;51.824;5.564;2022-10-31T08:01:41;101960.53;;;10.81;100.00
57990;BME280;58373;51.824;5.564;2022-10-31T08:04:06;101968.88;;;10.86;100.00
57990;BME280;58373;51.824;5.564;2022-10-31T08:06:31;101957.66;;;10.85;100.00
57990;BME280;58373;51.824;5.564;2022-10-31T08:08:57;101957.16;;;10.93;100.00
57990;BME280;58373;51.824;5.564;2022-10-31T08:11:22;101961.22;;;10.97;100.00
57990;BME280;58373;51.824;5.564;2022-10-31T08:13:47;101967.66;;;11.04;100.00
57990;BME280;58373;51.824;5.564;2022-10-31T08:16:13;101970.97;;;11.06;100.00
57990;BME280;58373;51.824;5.564;2022-10-31T08:18:38;101972.44;;;11.10;100.00
57990;BME280;58373;51.824;5.564;2022-10-31T08:21:03;101966.03;;;11.16;100.00
57990;BME280;58373;51.824;5.564;2022-10-31T08:23:29;101964.78;;;11.22;100.00
57990;BME280;58373;51.824;5.564;2022-10-31T08:25:54;101962.72;;;11.27;100.00
57990;BME280;58373;51.824;5.564;2022-10-31T08:28:19;101957.34;;;11.30;100.00
57990;BME280;58373;51.824;5.564;2022-10-31T08:30:45;101954.34;;;11.36;100.00
57990;BME280;58373;51.824;5.564;2022-10-31T08:33:12;101956.28;;;11.45;100.00
57990;BME280;58373;51.824;5.564;2022-10-31T08:35:38;101954.94;;;11.52;100.00
57990;BME280;58373;51.824;5.564;2022-10-31T08:38:04;101950.28;;;11.57;100.00
57990;BME280;58373;51.824;5.564;2022-10-31T08:40:31;101943.22;;;11.59;100.00
57990;BME280;58373;51.824;5.564;2022-10-31T08:43:01;101950.91;;;11.74;100.00
57990;BME280;58373;51.824;5.564;2022-10-31T08:45:28;101948.81;;;11.79;100.00
57990;BME280;58373;51.824;5.564;2022-10-31T08:47:58;101949.13;;;11.87;100.00
57990;BME280;58373;51.824;5.564;2022-10-31T08:50:24;101944.44;;;11.92;100.00
57990;BME280;58373;51.824;5.564;2022-10-31T08:52:50;101939.88;;;11.95;100.00
57990;BME280;58373;51.824;5.564;2022-10-31T08:55:15;101940.50;;;11.99;100.00
57990;BME280;58373;51.824;5.564;2022-10-31T08:57:41;101938.41;;;12.04;100.00
57990;BME280;58373;51.824;5.564;2022-10-31T09:00:07;101928.22;;;12.01;100.00
57990;BME280;58373;51.824;5.564;2022-10-31T09:02:32;101939.84;;;12.08;100.00
57990;BME280;58373;51.824;5.564;2022-10-31T09:04:58;101934.44;;;12.11;100.00
57990;BME280;58373;51.824;5.564;2022-10-31T09:07:23;101929.75;;;12.16;100.00
57990;BME280;58373;51.824;5.564;2022-10-31T09:09:48;101932.75;;;12.23;100.00
57990;BME280;58373;51.824;5.564;2022-10-31T09:12:13;101920.34;;;12.27;100.00
57990;BME280;58373;51.824;5.564;2022-10-31T09:14:39;101890.06;;;12.26;100.00
57990;BME280;58373;51.824;5.564;2022-10-31T09:17:04;101883.72;;;12.30;100.00
57990;BME280;58373;51.824;5.564;2022-10-31T09:19:30;101893.81;;;12.34;100.00
57990;BME280;58373;51.824;5.564;2022-10-31T09:21:55;101906.69;;;12.36;100.00
57990;BME280;58373;51.824;5.564;2022-10-31T09:24:20;101919.97;;;12.44;100.00
57990;BME280;58373;51.824;5.564;2022-10-31T09:26:46;101914.75;;;12.44;100.00
57990;BME280;58373;51.824;5.564;2022-10-31T09:29:11;101925.59;;;12.51;100.00
57990;BME280;58373;51.824;5.564;2022-10-31T09:31:37;101917.41;;;12.55;100.00
57990;BME280;58373;51.824;5.564;2022-10-31T09:34:02;101924.06;;;12.59;100.00
57990;BME280;58373;51.824;5.564;2022-10-31T09:36:28;101908.25;;;12.62;100.00
57990;BME280;58373;51.824;5.564;2022-10-31T09:38:53;101914.03;;;12.66;100.00
57990;BME280;58373;51.824;5.564;2022-10-31T09:41:29;101902.59;;;12.68;100.00
57990;BME280;58373;51.824;5.564;2022-10-31T09:44:08;101915.84;;;12.76;100.00
57990;BME280;58373;51.824;5.564;2022-10-31T09:50:02;101901.22;;;12.87;100.00
57990;BME280;58373;51.824;5.564;2022-10-31T09:52:36;101905.16;;;12.92;100.00
57990;BME280;58373;51.824;5.564;2022-10-31T09:55:16;101895.81;;;13.01;100.00
57990;BME280;58373;51.824;5.564;2022-10-31T09:57:44;101889.44;;;13.05;100.00
57990;BME280;58373;51.824;5.564;2022-10-31T10:00:17;101876.19;;;13.08;100.00
57990;BME280;58373;51.824;5.564;2022-10-31T10:02:47;101867.19;;;13.12;100.00
57990;BME280;58373;51.824;5.564;2022-10-31T10:05:21;101857.50;;;13.14;100.00
57990;BME280;58373;51.824;5.564;2022-10-31T10:08:39;101863.09;;;13.21;100.00
57990;BME280;58373;51.824;5.564;2022-10-31T10:22:19;101882.88;;;13.46;100.00
57990;BME280;58373;51.824;5.564;2022-10-31T10:25:27;101872.25;;;13.49;100.00
57990;BME280;58373;51.824;5.564;2022-10-31T10:28:43;101845.91;;;13.52;100.00
57990;BME280;58373;51.824;5.564;2022-10-31T10:31:18;101862.16;;;13.55;100.00
57990;BME280;58373;51.824;5.564;2022-10-31T10:36:36;101837.28;;;13.63;100.00
57990;BME280;58373;51.824;5.564;2022-10-31T10:41:44;101817.25;;;13.63;100.00
57990;BME280;58373;51.824;5.564;2022-10-31T10:44:11;101799.47;;;13.68;100.00
57990;BME280;58373;51.824;5.564;2022-10-31T10:46:48;101818.50;;;13.80;100.00
57990;BME280;58373;51.824;5.564;2022-10-31T10:49:49;101808.69;;;13.84;100.00
57990;BME280;58373;51.824;5.564;2022-10-31T10:57:40;101790.41;;;13.95;100.00
57990;BME280;58373;51.824;5.564;2022-10-31T11:00:17;101804.41;;;13.94;100.00
57990;BME280;58373;51.824;5.564;2022-10-31T11:02:43;101813.50;;;13.99;100.00
57990;BME280;58373;51.824;5.564;2022-10-31T11:05:18;101808.72;;;14.04;100.00
57990;BME280;58373;51.824;5.564;2022-10-31T11:07:45;101792.97;;;14.06;100.00
57990;BME280;58373;51.824;5.564;2022-10-31T11:10:16;101788.31;;;14.09;100.00
57990;BME280;58373;51.824;5.564;2022-10-31T11:12:58;101785.34;;;14.14;100.00
57990;BME280;58373;51.824;5.564;2022-10-31T11:15:26;101784.97;;;14.19;100.00
57990;BME280;58373;51.824;5.564;2022-10-31T11:17:54;101780.22;;;14.24;100.00
57990;BME280;58373;51.824;5.564;2022-10-31T11:20:26;101768.94;;;14.23;100.00
57990;BME280;58373;51.824;5.564;2022-10-31T11:23:16;101744.50;;;14.24;100.00
57990;BME280;58373;51.824;5.564;2022-10-31T11:28:19;101740.19;;;14.34;100.00
57990;BME280;58373;51.824;5.564;2022-10-31T11:30:48;101742.84;;;14.44;100.00
57990;BME280;58373;51.824;5.564;2022-10-31T11:33:21;101729.78;;;14.44;100.00
57990;BME280;58373;51.824;5.564;2022-10-31T11:35:48;101728.47;;;14.50;100.00
57990;BME280;58373;51.824;5.564;2022-10-31T11:38:18;101734.88;;;14.57;100.00
57990;BME280;58373;51.824;5.564;2022-10-31T11:40:58;101730.47;;;14.57;100.00
57990;BME280;58373;51.824;5.564;2022-10-31T11:43:24;101725.56;;;14.64;100.00
57990;BME280;58373;51.824;5.564;2022-10-31T11:45:51;101730.56;;;14.77;100.00
57990;BME280;58373;51.824;5.564;2022-10-31T11:48:19;101711.88;;;14.81;100.00
57990;BME280;58373;51.824;5.564;2022-10-31T11:50:54;101706.66;;;14.81;100.00
57990;BME280;58373;51.824;5.564;2022-10-31T11:53:33;101694.28;;;14.83;100.00
57990;BME280;58373;51.824;5.564;2022-10-31T11:56:03;101688.69;;;14.88;100.00
57990;BME280;58373;51.824;5.564;2022-10-31T11:58:29;101683.31;;;14.90;100.00
57990;BME280;58373;51.824;5.564;2022-10-31T12:00:56;101682.53;;;14.99;99.75
57990;BME280;58373;51.824;5.564;2022-10-31T12:05:55;101678.16;;;15.09;100.00
57990;BME280;58373;51.824;5.564;2022-10-31T12:08:25;101672.94;;;15.09;99.57
57990;BME280;58373;51.824;5.564;2022-10-31T12:13:37;101658.09;;;15.19;98.60
57990;BME280;58373;51.824;5.564;2022-10-31T12:18:42;101633.09;;;15.26;97.86
57990;BME280;58373;51.824;5.564;2022-10-31T12:24:14;101626.78;;;15.38;97.61
57990;BME280;58373;51.824;5.564;2022-10-31T12:32:15;101599.22;;;15.54;96.95
57990;BME280;58373;51.824;5.564;2022-10-31T12:37:33;101589.75;;;15.53;96.02
57990;BME280;58373;51.824;5.564;2022-10-31T12:46:03;101577.22;;;15.47;95.62
57990;BME280;58373;51.824;5.564;2022-10-31T12:48:48;101564.97;;;15.47;95.13
57990;BME280;58373;51.824;5.564;2022-10-31T12:54:17;101551.06;;;15.47;95.82
57990;BME280;58373;51.824;5.564;2022-10-31T12:59:52;101541.59;;;15.46;94.92
57990;BME280;58373;51.824;5.564;2022-10-31T13:03:17;101540.63;;;15.47;94.83
57990;BME280;58373;51.824;5.564;2022-10-31T13:05:33;101540.88;;;15.53;94.71
57990;BME280;58373;51.824;5.564;2022-10-31T13:08:15;101535.94;;;15.60;95.43
57990;BME280;58373;51.824;5.564;2022-10-31T13:10:44;101520.81;;;15.63;94.74
57990;BME280;58373;51.824;5.564;2022-10-31T13:13:34;101512.53;;;15.68;94.39
57990;BME280;58373;51.824;5.564;2022-10-31T13:16:20;101508.97;;;15.69;94.68
57990;BME280;58373;51.824;5.564;2022-10-31T13:18:54;101495.06;;;15.69;93.54
57990;BME280;58373;51.824;5.564;2022-10-31T13:21:24;101487.78;;;15.72;93.34
57990;BME280;58373;51.824;5.564;2022-10-31T13:23:51;101475.63;;;15.71;92.93
57990;BME280;58373;51.824;5.564;2022-10-31T13:26:38;101468.19;;;15.76;93.73
57990;BME280;58373;51.824;5.564;2022-10-31T13:29:15;101468.19;;;15.76;92.81
57990;BME280;58373;51.824;5.564;2022-10-31T13:31:42;101467.91;;;15.79;92.98
57990;BME280;58373;51.824;5.564;2022-10-31T13:34:28;101459.91;;;15.81;92.89
57990;BME280;58373;51.824;5.564;2022-10-31T13:42:18;101459.50;;;15.85;91.57
57990;BME280;58373;51.824;5.564;2022-10-31T13:44:45;101450.28;;;15.81;90.00
57990;BME280;58373;51.824;5.564;2022-10-31T13:47:28;101453.03;;;15.80;89.61
57990;BME280;58373;51.824;5.564;2022-10-31T13:52:44;101438.75;;;15.74;89.18
57990;BME280;58373;51.824;5.564;2022-10-31T13:55:36;101438.47;;;15.77;89.36
57990;BME280;58373;51.824;5.564;2022-10-31T13:58:20;101429.94;;;15.75;89.14
57990;BME280;58373;51.824;5.564;2022-10-31T14:01:16;101425.81;;;15.73;88.99
57990;BME280;58373;51.824;5.564;2022-10-31T14:03:44;101432.16;;;15.70;89.96
57990;BME280;58373;51.824;5.564;2022-10-31T14:06:11;101420.03;;;15.69;89.89
57990;BME280;58373;51.824;5.564;2022-10-31T14:08:40;101425.28;;;15.69;89.30
57990;BME280;58373;51.824;5.564;2022-10-31T14:11:09;101415.41;;;15.63;88.90
57990;BME280;58373;51.824;5.564;2022-10-31T14:13:44;101420.63;;;15.63;88.96
57990;BME280;58373;51.824;5.564;2022-10-31T14:18:48;101406.56;;;15.64;88.97
57990;BME280;58373;51.824;5.564;2022-10-31T14:23:51;101390.38;;;15.51;88.27
57990;BME280;58373;51.824;5.564;2022-10-31T14:28:43;101381.41;;;15.53;88.24
57990;BME280;58373;51.824;5.564;2022-10-31T14:34:35;101371.41;;;15.49;89.21
57990;BME280;58373;51.824;5.564;2022-10-31T14:37:17;101363.91;;;15.54;88.44
57990;BME280;58373;51.824;5.564;2022-10-31T14:52:44;101361.22;;;15.46;89.06